sensor_id;sensor_type;location;lat;lon;timestamp;temperature;humidity
21928;DHT22;11128;51.096;17.190;2023-03-26T00:02:43;8.00;99.90
21928;DHT22;11128;51.096;17.190;2023-03-26T00:07:44;8.00;99.90
21928;DHT22;11128;51.096;17.190;2023-03-26T00:12:47;8.10;99.90
21928;DHT22;11128;51.096;17.190;2023-03-26T00:17:48;9.10;99.90
21928;DHT22;11128;51.096;17.190;2023-03-26T00:22:49;8.00;99.90
21928;DHT22;11128;51.096;17.190;2023-03-26T00:27:51;8.00;1.00
21928;DHT22;11128;51.096;17.190;2023-03-26T00:32:52;8.60;1.00
21928;DHT22;11128;51.096;17.190;2023-03-26T00:37:54;8.20;1.00
21928;DHT22;11128;51.096;17.190;2023-03-26T00:42:55;7.80;1.00
21928;DHT22;11128;51.096;17.190;2023-03-26T00:47:57;7.70;96.80
21928;DHT22;11128;51.096;17.190;2023-03-26T00:52:59;8.40;99.90
21928;DHT22;11128;51.096;17.190;2023-03-26T00:58:00;7.60;99.90
21928;DHT22;11128;51.096;17.190;2023-03-26T01:03:04;8.30;1.00
21928;DHT22;11128;51.096;17.190;2023-03-26T01:08:31;7.60;1.00
21928;DHT22;11128;51.096;17.190;2023-03-26T01:13:37;7.60;1.00
21928;DHT22;11128;51.096;17.190;2023-03-26T01:18:38;7.60;1.00
21928;DHT22;11128;51.096;17.190;2023-03-26T01:23:46;8.50;99.90
21928;DHT22;11128;51.096;17.190;2023-03-26T01:28:55;7.50;99.90
21928;DHT22;11128;51.096;17.190;2023-03-26T01:34:04;7.40;1.00
21928;DHT22;11128;51.096;17.190;2023-03-26T01:44:33;7.30;1.00
21928;DHT22;11128;51.096;17.190;2023-03-26T01:49:36;8.00;1.00
21928;DHT22;11128;51.096;17.190;2023-03-26T01:54:38;7.40;1.00
21928;DHT22;11128;51.096;17.190;2023-03-26T02:00:07;7.70;1.00
21928;DHT22;11128;51.096;17.190;2023-03-26T02:10:29;7.30;1.00
21928;DHT22;11128;51.096;17.190;2023-03-26T02:15:31;8.10;99.90
21928;DHT22;11128;51.096;17.190;2023-03-26T02:20:32;8.30;99.90
21928;DHT22;11128;51.096;17.190;2023-03-26T02:25:34;8.20;1.00
21928;DHT22;11128;51.096;17.190;2023-03-26T02:30:40;7.90;1.00
21928;DHT22;11128;51.096;17.190;2023-03-26T02:35:43;7.50;99.90
21928;DHT22;11128;51.096;17.190;2023-03-26T02:40:45;7.60;22.30
21928;DHT22;11128;51.096;17.190;2023-03-26T02:45:47;7.60;99.90
21928;DHT22;11128;51.096;17.190;2023-03-26T02:50:49;7.60;1.00
21928;DHT22;11128;51.096;17.190;2023-03-26T02:55:55;7.70;1.00
21928;DHT22;11128;51.096;17.190;2023-03-26T03:00:56;8.00;1.00
21928;DHT22;11128;51.096;17.190;2023-03-26T03:05:59;8.00;1.00
21928;DHT22;11128;51.096;17.190;2023-03-26T03:11:06;8.50;1.00
21928;DHT22;11128;51.096;17.190;2023-03-26T03:16:08;8.00;1.00
21928;DHT22;11128;51.096;17.190;2023-03-26T03:21:10;8.00;1.00
21928;DHT22;11128;51.096;17.190;2023-03-26T03:26:14;8.00;1.00
21928;DHT22;11128;51.096;17.190;2023-03-26T03:31:16;7.90;99.90
21928;DHT22;11128;51.096;17.190;2023-03-26T03:36:20;7.90;99.90
21928;DHT22;11128;51.096;17.190;2023-03-26T03:41:28;7.90;99.90
21928;DHT22;11128;51.096;17.190;2023-03-26T03:46:29;7.90;99.90
21928;DHT22;11128;51.096;17.190;2023-03-26T03:51:31;7.90;99.90
21928;DHT22;11128;51.096;17.190;2023-03-26T03:56:32;7.90;99.90
21928;DHT22;11128;51.096;17.190;2023-03-26T04:01:33;8.00;1.00
21928;DHT22;11128;51.096;17.190;2023-03-26T04:06:35;8.10;1.00
21928;DHT22;11128;51.096;17.190;2023-03-26T04:11:36;8.00;1.00
21928;DHT22;11128;51.096;17.190;2023-03-26T04:16:37;8.00;1.00
21928;DHT22;11128;51.096;17.190;2023-03-26T04:21:39;8.90;99.90
21928;DHT22;11128;51.096;17.190;2023-03-26T04:26:42;8.00;1.00
21928;DHT22;11128;51.096;17.190;2023-03-26T04:31:44;8.10;1.00
21928;DHT22;11128;51.096;17.190;2023-03-26T04:36:46;8.30;1.00
21928;DHT22;11128;51.096;17.190;2023-03-26T04:41:48;8.30;1.00
21928;DHT22;11128;51.096;17.190;2023-03-26T04:46:52;8.30;1.00
21928;DHT22;11128;51.096;17.190;2023-03-26T04:51:55;8.50;1.00
21928;DHT22;11128;51.096;17.190;2023-03-26T04:57:02;8.40;1.00
21928;DHT22;11128;51.096;17.190;2023-03-26T05:02:05;8.40;1.00
21928;DHT22;11128;51.096;17.190;2023-03-26T05:07:06;8.40;1.00
21928;DHT22;11128;51.096;17.190;2023-03-26T05:12:09;7.80;1.00
21928;DHT22;11128;51.096;17.190;2023-03-26T05:17:13;8.30;59.50
21928;DHT22;11128;51.096;17.190;2023-03-26T05:22:15;8.30;99.90
21928;DHT22;11128;51.096;17.190;2023-03-26T05:27:17;8.60;99.90
21928;DHT22;11128;51.096;17.190;2023-03-26T05:32:20;8.10;1.00
21928;DHT22;11128;51.096;17.190;2023-03-26T05:37:21;8.50;99.90
21928;DHT22;11128;51.096;17.190;2023-03-26T05:42:25;8.10;99.90
21928;DHT22;11128;51.096;17.190;2023-03-26T05:47:26;8.10;1.00
21928;DHT22;11128;51.096;17.190;2023-03-26T05:52:27;8.10;1.00
21928;DHT22;11128;51.096;17.190;2023-03-26T05:57:29;8.20;1.00
21928;DHT22;11128;51.096;17.190;2023-03-26T06:02:31;8.20;1.00
21928;DHT22;11128;51.096;17.190;2023-03-26T06:07:32;8.20;1.00
21928;DHT22;11128;51.096;17.190;2023-03-26T06:12:34;8.40;1.00
21928;DHT22;11128;51.096;17.190;2023-03-26T06:17:35;8.30;1.00
21928;DHT22;11128;51.096;17.190;2023-03-26T06:22:36;8.40;1.00
21928;DHT22;11128;51.096;17.190;2023-03-26T06:27:38;8.50;1.00
21928;DHT22;11128;51.096;17.190;2023-03-26T06:32:39;8.60;1.00
21928;DHT22;11128;51.096;17.190;2023-03-26T06:37:40;8.70;1.00
21928;DHT22;11128;51.096;17.190;2023-03-26T06:42:42;8.70;99.90
21928;DHT22;11128;51.096;17.190;2023-03-26T06:47:43;8.70;99.90
21928;DHT22;11128;51.096;17.190;2023-03-26T06:52:45;8.80;99.90
21928;DHT22;11128;51.096;17.190;2023-03-26T06:57:49;8.80;99.90
21928;DHT22;11128;51.096;17.190;2023-03-26T07:02:50;8.90;99.90
21928;DHT22;11128;51.096;17.190;2023-03-26T07:07:52;8.90;99.90
21928;DHT22;11128;51.096;17.190;2023-03-26T07:12:53;9.10;92.60
21928;DHT22;11128;51.096;17.190;2023-03-26T07:17:55;9.20;1.00
21928;DHT22;11128;51.096;17.190;2023-03-26T07:22:57;9.30;1.00
21928;DHT22;11128;51.096;17.190;2023-03-26T07:44:29;9.30;1.00
21928;DHT22;11128;51.096;17.190;2023-03-26T07:49:27;9.50;1.00
21928;DHT22;11128;51.096;17.190;2023-03-26T07:54:30;9.50;1.00
21928;DHT22;11128;51.096;17.190;2023-03-26T07:59:39;9.60;1.00
21928;DHT22;11128;51.096;17.190;2023-03-26T08:04:59;9.80;1.00
21928;DHT22;11128;51.096;17.190;2023-03-26T08:10:25;9.90;1.00
21928;DHT22;11128;51.096;17.190;2023-03-26T08:15:49;10.00;1.00
21928;DHT22;11128;51.096;17.190;2023-03-26T08:21:02;10.10;1.00
21928;DHT22;11128;51.096;17.190;2023-03-26T08:26:08;10.30;1.00
21928;DHT22;11128;51.096;17.190;2023-03-26T08:31:13;10.30;1.00
21928;DHT22;11128;51.096;17.190;2023-03-26T08:36:15;9.00;1.00
21928;DHT22;11128;51.096;17.190;2023-03-26T08:41:33;9.80;29.20
21928;DHT22;11128;51.096;17.190;2023-03-26T09:03:51;10.20;1.00
21928;DHT22;11128;51.096;17.190;2023-03-26T09:09:36;10.40;1.00
21928;DHT22;11128;51.096;17.190;2023-03-26T09:14:45;10.50;1.00
21928;DHT22;11128;51.096;17.190;2023-03-26T09:46:30;10.90;99.90
21928;DHT22;11128;51.096;17.190;2023-03-26T09:52:00;10.20;1.00
21928;DHT22;11128;51.096;17.190;2023-03-26T09:57:16;9.60;1.00
21928;DHT22;11128;51.096;17.190;2023-03-26T10:55:44;10.70;99.90
21928;DHT22;11128;51.096;17.190;2023-03-26T11:00:59;11.20;99.90
21928;DHT22;11128;51.096;17.190;2023-03-26T11:11:29;10.90;48.00
21928;DHT22;11128;51.096;17.190;2023-03-26T11:27:25;12.30;1.00
21928;DHT22;11128;51.096;17.190;2023-03-26T11:32:42;13.70;12.90
21928;DHT22;11128;51.096;17.190;2023-03-26T11:37:51;15.50;25.40
21928;DHT22;11128;51.096;17.190;2023-03-26T11:42:58;17.00;1.00
21928;DHT22;11128;51.096;17.190;2023-03-26T11:53:11;17.70;1.00
21928;DHT22;11128;51.096;17.190;2023-03-26T11:58:50;17.00;1.00
21928;DHT22;11128;51.096;17.190;2023-03-26T12:04:05;15.90;1.00
21928;DHT22;11128;51.096;17.190;2023-03-26T12:09:16;14.40;1.00
21928;DHT22;11128;51.096;17.190;2023-03-26T12:14:21;13.40;1.00
21928;DHT22;11128;51.096;17.190;2023-03-26T12:19:24;13.10;1.00
21928;DHT22;11128;51.096;17.190;2023-03-26T12:24:32;13.00;1.00
21928;DHT22;11128;51.096;17.190;2023-03-26T12:29:37;12.90;17.70
21928;DHT22;11128;51.096;17.190;2023-03-26T12:34:39;13.10;33.00
21928;DHT22;11128;51.096;17.190;2023-03-26T12:39:43;14.00;25.70
21928;DHT22;11128;51.096;17.190;2023-03-26T12:44:50;12.70;18.80
21928;DHT22;11128;51.096;17.190;2023-03-26T12:49:53;12.70;25.30
21928;DHT22;11128;51.096;17.190;2023-03-26T13:16:12;13.10;1.00
21928;DHT22;11128;51.096;17.190;2023-03-26T13:26:58;13.40;1.00
21928;DHT22;11128;51.096;17.190;2023-03-26T13:32:13;13.60;1.00
21928;DHT22;11128;51.096;17.190;2023-03-26T13:37:54;13.50;1.00
21928;DHT22;11128;51.096;17.190;2023-03-26T13:48:20;15.00;1.00
21928;DHT22;11128;51.096;17.190;2023-03-26T13:53:28;14.70;1.00
21928;DHT22;11128;51.096;17.190;2023-03-26T13:58:45;14.00;1.00
21928;DHT22;11128;51.096;17.190;2023-03-26T14:09:15;13.20;1.00
21928;DHT22;11128;51.096;17.190;2023-03-26T14:20:22;12.90;1.00
21928;DHT22;11128;51.096;17.190;2023-03-26T14:25:48;12.80;1.00
21928;DHT22;11128;51.096;17.190;2023-03-26T14:47:40;12.50;1.00
21928;DHT22;11128;51.096;17.190;2023-03-26T14:52:53;12.90;1.00
21928;DHT22;11128;51.096;17.190;2023-03-26T15:03:30;12.70;1.00
21928;DHT22;11128;51.096;17.190;2023-03-26T15:14:32;12.10;1.00
21928;DHT22;11128;51.096;17.190;2023-03-26T15:25:40;11.60;99.90
21928;DHT22;11128;51.096;17.190;2023-03-26T15:41:45;11.10;99.90
21928;DHT22;11128;51.096;17.190;2023-03-26T16:08:31;10.20;99.90
21928;DHT22;11128;51.096;17.190;2023-03-26T16:13:48;9.50;99.90
21928;DHT22;11128;51.096;17.190;2023-03-26T16:18:57;8.60;1.00
21928;DHT22;11128;51.096;17.190;2023-03-26T16:24:22;8.40;99.90
21928;DHT22;11128;51.096;17.190;2023-03-26T16:29:26;8.50;99.90
21928;DHT22;11128;51.096;17.190;2023-03-26T16:34:48;8.60;1.00
21928;DHT22;11128;51.096;17.190;2023-03-26T16:39:49;8.50;99.90
21928;DHT22;11128;51.096;17.190;2023-03-26T16:45:31;8.50;99.90
21928;DHT22;11128;51.096;17.190;2023-03-26T16:56:10;8.50;1.00
21928;DHT22;11128;51.096;17.190;2023-03-26T17:01:27;8.50;1.00
21928;DHT22;11128;51.096;17.190;2023-03-26T17:17:31;8.50;99.90
21928;DHT22;11128;51.096;17.190;2023-03-26T17:22:38;8.40;1.00
21928;DHT22;11128;51.096;17.190;2023-03-26T17:27:50;8.40;99.90
21928;DHT22;11128;51.096;17.190;2023-03-26T17:32:56;8.30;1.00
21928;DHT22;11128;51.096;17.190;2023-03-26T17:37:58;8.20;99.90
21928;DHT22;11128;51.096;17.190;2023-03-26T17:43:10;8.10;1.00
21928;DHT22;11128;51.096;17.190;2023-03-26T17:48:14;8.10;99.90
21928;DHT22;11128;51.096;17.190;2023-03-26T17:53:26;8.00;1.00
21928;DHT22;11128;51.096;17.190;2023-03-26T17:58:34;8.00;1.00
21928;DHT22;11128;51.096;17.190;2023-03-26T18:03:43;8.00;99.90
21928;DHT22;11128;51.096;17.190;2023-03-26T18:09:09;8.00;99.90
21928;DHT22;11128;51.096;17.190;2023-03-26T18:14:42;8.00;1.00
21928;DHT22;11128;51.096;17.190;2023-03-26T18:19:52;8.00;1.00
21928;DHT22;11128;51.096;17.190;2023-03-26T18:24:59;8.10;99.90
21928;DHT22;11128;51.096;17.190;2023-03-26T18:35:20;8.10;99.90
21928;DHT22;11128;51.096;17.190;2023-03-26T18:40:23;8.10;1.00
21928;DHT22;11128;51.096;17.190;2023-03-26T18:45:31;8.10;1.00
21928;DHT22;11128;51.096;17.190;2023-03-26T18:50:37;8.10;1.00
21928;DHT22;11128;51.096;17.190;2023-03-26T18:55:39;8.10;1.00
21928;DHT22;11128;51.096;17.190;2023-03-26T19:00:41;8.10;1.00
21928;DHT22;11128;51.096;17.190;2023-03-26T19:05:46;8.80;99.90
21928;DHT22;11128;51.096;17.190;2023-03-26T19:10:48;8.10;97.50
21928;DHT22;11128;51.096;17.190;2023-03-26T19:15:51;8.10;99.90
21928;DHT22;11128;51.096;17.190;2023-03-26T19:20:56;8.10;1.00
21928;DHT22;11128;51.096;17.190;2023-03-26T19:26:00;8.10;99.90
21928;DHT22;11128;51.096;17.190;2023-03-26T19:31:09;8.00;99.90
21928;DHT22;11128;51.096;17.190;2023-03-26T19:36:16;8.00;99.90
21928;DHT22;11128;51.096;17.190;2023-03-26T19:41:22;8.00;93.80
21928;DHT22;11128;51.096;17.190;2023-03-26T19:46:26;8.00;99.90
21928;DHT22;11128;51.096;17.190;2023-03-26T19:51:35;8.00;1.00
21928;DHT22;11128;51.096;17.190;2023-03-26T19:56:37;8.00;1.00
21928;DHT22;11128;51.096;17.190;2023-03-26T20:01:38;7.90;1.00
21928;DHT22;11128;51.096;17.190;2023-03-26T20:06:40;6.90;66.00
21928;DHT22;11128;51.096;17.190;2023-03-26T20:11:42;7.80;1.00
21928;DHT22;11128;51.096;17.190;2023-03-26T20:16:44;7.80;1.00
21928;DHT22;11128;51.096;17.190;2023-03-26T20:21:46;7.70;60.10
21928;DHT22;11128;51.096;17.190;2023-03-26T20:26:47;7.70;99.90
21928;DHT22;11128;51.096;17.190;2023-03-26T20:31:50;7.80;1.00
21928;DHT22;11128;51.096;17.190;2023-03-26T20:36:51;7.70;95.70
21928;DHT22;11128;51.096;17.190;2023-03-26T20:41:58;7.70;99.90
21928;DHT22;11128;51.096;17.190;2023-03-26T20:47:00;7.70;99.90
21928;DHT22;11128;51.096;17.190;2023-03-26T20:52:01;7.70;99.90
21928;DHT22;11128;51.096;17.190;2023-03-26T20:57:03;7.70;99.90
21928;DHT22;11128;51.096;17.190;2023-03-26T21:02:04;8.40;99.90
21928;DHT22;11128;51.096;17.190;2023-03-26T21:07:06;7.60;99.90
21928;DHT22;11128;51.096;17.190;2023-03-26T21:12:31;7.70;99.90
21928;DHT22;11128;51.096;17.190;2023-03-26T21:17:35;7.60;1.00
21928;DHT22;11128;51.096;17.190;2023-03-26T21:23:25;7.60;1.00
21928;DHT22;11128;51.096;17.190;2023-03-26T21:33:14;7.50;1.00
21928;DHT22;11128;51.096;17.190;2023-03-26T21:38:22;7.50;99.90
21928;DHT22;11128;51.096;17.190;2023-03-26T21:43:23;7.30;99.90
21928;DHT22;11128;51.096;17.190;2023-03-26T21:48:27;7.40;99.90
21928;DHT22;11128;51.096;17.190;2023-03-26T21:53:28;7.40;99.90
21928;DHT22;11128;51.096;17.190;2023-03-26T21:58:59;7.40;99.90
21928;DHT22;11128;51.096;17.190;2023-03-26T22:09:37;7.30;1.00
21928;DHT22;11128;51.096;17.190;2023-03-26T22:14:39;7.30;1.00
21928;DHT22;11128;51.096;17.190;2023-03-26T22:19:40;7.30;1.00
21928;DHT22;11128;51.096;17.190;2023-03-26T22:24:42;7.40;1.00
21928;DHT22;11128;51.096;17.190;2023-03-26T22:29:44;7.90;1.00
21928;DHT22;11128;51.096;17.190;2023-03-26T22:34:46;7.40;99.90
21928;DHT22;11128;51.096;17.190;2023-03-26T22:39:48;7.40;99.90
21928;DHT22;11128;51.096;17.190;2023-03-26T22:44:50;7.30;99.90
21928;DHT22;11128;51.096;17.190;2023-03-26T22:49:52;7.30;99.90
21928;DHT22;11128;51.096;17.190;2023-03-26T22:54:54;7.30;99.90
21928;DHT22;11128;51.096;17.190;2023-03-26T22:59:55;7.30;99.90
21928;DHT22;11128;51.096;17.190;2023-03-26T23:05:08;7.40;99.90
21928;DHT22;11128;51.096;17.190;2023-03-26T23:10:11;7.40;1.00
21928;DHT22;11128;51.096;17.190;2023-03-26T23:15:15;7.50;1.00
21928;DHT22;11128;51.096;17.190;2023-03-26T23:20:17;7.50;1.00
21928;DHT22;11128;51.096;17.190;2023-03-26T23:25:18;7.60;1.00
21928;DHT22;11128;51.096;17.190;2023-03-26T23:30:20;7.60;99.90
21928;DHT22;11128;51.096;17.190;2023-03-26T23:35:21;7.60;99.90
21928;DHT22;11128;51.096;17.190;2023-03-26T23:40:22;7.60;1.00
21928;DHT22;11128;51.096;17.190;2023-03-26T23:45:24;7.70;1.00
21928;DHT22;11128;51.096;17.190;2023-03-26T23:50:25;7.60;1.00
21928;DHT22;11128;51.096;17.190;2023-03-26T23:55:29;7.70;1.00
